Time;durP1;ratioP1;P1;durP2;ratioP2;P2;SDS_P1;SDS_P2;PMS_P1;PMS_P2;Temp;Humidity;BMP_temperature;BMP_pressure;BME280_temperature;BME280_humidity;BME280_pressure;Samples;Min_cycle;Max_cycle;Signal;HPM_P1;HPM_P2
2021/05/22 00:01:39;;;;;;;6.28;3.65;;;;;;;12.29;87.03;100764.22;5034533;28;20745;-71
2021/05/22 00:04:04;;;;;;;6.72;3.33;;;;;;;12.45;87.27;100755.25;5034896;28;20040;-73
2021/05/22 00:06:30;;;;;;;8.43;3.30;;;;;;;12.65;84.53;100767.97;5052563;28;20033;-73
2021/05/22 00:08:55;;;;;;;6.28;3.08;;;;;;;12.69;84.21;100752.59;5052727;28;20455;-72
2021/05/22 00:11:21;;;;;;;8.02;2.95;;;;;;;12.83;83.93;100744.41;5051552;28;20094;-73
2021/05/22 00:13:46;;;;;;;7.78;3.15;;;;;;;13.03;83.35;100743.28;5052361;28;20035;-72
2021/05/22 00:16:12;;;;;;;5.35;2.85;;;;;;;13.28;83.45;100764.81;5052384;28;20041;-74
2021/05/22 00:18:38;;;;;;;5.00;3.15;;;;;;;12.95;82.33;100711.09;5052343;28;20483;-75
2021/05/22 00:21:03;;;;;;;8.45;2.67;;;;;;;13.08;81.91;100784.91;5034676;28;20033;-72
2021/05/22 00:23:29;;;;;;;6.38;2.95;;;;;;;12.99;81.42;100774.28;5034694;28;20479;-72
2021/05/22 00:25:54;;;;;;;7.90;2.83;;;;;;;12.95;81.16;100763.78;5052343;28;20017;-72
2021/05/22 00:28:20;;;;;;;7.63;2.88;;;;;;;13.14;80.57;100779.06;5052532;28;20384;-75
2021/05/22 00:30:45;;;;;;;7.28;2.90;;;;;;;12.77;80.40;100712.28;5051924;28;20028;-73
2021/05/22 00:33:11;;;;;;;6.35;3.10;;;;;;;13.15;80.23;100775.66;5052240;28;20036;-73
2021/05/22 00:35:36;;;;;;;4.32;3.00;;;;;;;13.15;80.12;100786.00;5052013;28;20029;-72
2021/05/22 00:38:02;;;;;;;8.45;3.15;;;;;;;13.21;79.40;100783.63;5050812;28;20037;-73
2021/05/22 00:40:27;;;;;;;11.20;3.40;;;;;;;13.18;79.23;100788.69;5050840;28;20044;-75
2021/05/22 00:42:53;;;;;;;8.20;3.10;;;;;;;13.04;79.56;100770.13;5052034;28;20035;-75
2021/05/22 00:45:21;;;;;;;8.13;3.00;;;;;;;12.65;79.54;100719.66;5051928;28;20495;-77
2021/05/22 00:47:52;;;;;;;5.82;2.80;;;;;;;12.73;77.42;100782.94;5030256;28;20050;-69
2021/05/22 00:50:28;;;;;;;4.68;3.40;;;;;;;12.70;77.83;100789.75;5032072;28;20029;-71
2021/05/22 00:52:54;;;;;;;6.05;3.20;;;;;;;12.55;77.57;100775.44;5031819;28;20029;-70
2021/05/22 00:55:20;;;;;;;6.80;3.40;;;;;;;12.37;78.09;100782.59;5009499;28;20044;-71
2021/05/22 00:57:46;;;;;;;7.65;3.22;;;;;;;11.29;78.83;100643.38;5009167;28;20496;-71
2021/05/22 01:00:28;;;;;;;8.20;3.30;;;;;;;12.16;79.62;100798.25;5009954;28;20516;-71
2021/05/22 01:02:54;;;;;;;8.48;3.38;;;;;;;12.08;79.97;100801.44;5009620;28;20542;-70
2021/05/22 01:05:20;;;;;;;9.40;3.25;;;;;;;12.09;80.70;100787.66;5009363;28;20038;-71
2021/05/22 01:07:48;;;;;;;5.70;3.08;;;;;;;12.26;80.04;100797.72;5009400;28;20041;-72
2021/05/22 01:10:15;;;;;;;7.38;3.20;;;;;;;12.41;79.26;100792.22;5009341;28;20064;-74
2021/05/22 01:12:44;;;;;;;6.30;2.88;;;;;;;12.47;79.72;100789.84;5009561;28;20042;-72
2021/05/22 01:15:13;;;;;;;7.82;3.20;;;;;;;12.50;79.92;100781.28;5009386;28;20069;-71
2021/05/22 01:17:49;;;;;;;6.03;2.90;;;;;;;12.21;79.01;100713.88;5010085;28;20032;-71
2021/05/22 01:20:34;;;;;;;6.03;3.00;;;;;;;12.67;78.73;100769.78;5009311;28;20072;-73
2021/05/22 01:23:08;;;;;;;8.57;3.35;;;;;;;12.79;78.53;100772.78;5009389;28;20041;-71
2021/05/22 01:25:41;;;;;;;9.90;4.20;;;;;;;12.79;78.82;100783.13;5009053;28;20046;-73
2021/05/22 01:28:09;;;;;;;6.13;4.18;;;;;;;12.53;78.93;100722.72;5009391;28;20033;-70
2021/05/22 01:30:36;;;;;;;10.93;4.45;;;;;;;12.86;78.90;100788.53;5008780;28;20069;-73
2021/05/22 01:33:03;;;;;;;8.52;4.10;;;;;;;12.71;78.76;100779.44;5010566;28;20068;-74
2021/05/22 01:35:28;;;;;;;10.52;3.75;;;;;;;12.65;78.84;100771.47;5031751;28;20029;-74
2021/05/22 01:37:54;;;;;;;9.57;3.10;;;;;;;12.70;78.62;100782.84;5031375;28;20088;-74
2021/05/22 01:40:19;;;;;;;9.50;3.80;;;;;;;12.71;78.30;100783.72;5031422;28;20025;-74
2021/05/22 01:42:45;;;;;;;8.98;3.60;;;;;;;12.66;78.40;100780.09;5031163;28;20087;-74
2021/05/22 01:45:16;;;;;;;8.57;3.53;;;;;;;12.57;77.56;100781.56;5031378;28;20108;-74
2021/05/22 01:47:45;;;;;;;8.75;3.42;;;;;;;12.16;77.09;100778.41;5047872;28;20049;-74
2021/05/22 01:50:13;;;;;;;6.53;3.67;;;;;;;12.19;77.47;100788.00;5051063;28;20024;-74
2021/05/22 01:52:41;;;;;;;7.07;4.28;;;;;;;12.13;77.84;100792.13;5050991;28;20029;-74
2021/05/22 01:55:09;;;;;;;13.98;5.35;;;;;;;11.78;77.30;100764.94;5051317;28;20062;-74
2021/05/22 01:57:34;;;;;;;12.52;5.10;;;;;;;11.60;79.11;100781.56;5051204;28;20148;-74
2021/05/22 02:00:03;;;;;;;20.70;5.80;;;;;;;11.48;80.30;100797.47;5050993;28;20515;-74
2021/05/22 02:02:28;;;;;;;15.95;6.15;;;;;;;11.35;80.82;100774.53;5050958;28;20043;-74
2021/05/22 02:04:57;;;;;;;10.55;6.15;;;;;;;11.48;80.58;100781.94;5051203;28;20028;-74
2021/05/22 02:07:25;;;;;;;11.80;6.00;;;;;;;11.48;80.76;100786.25;5051248;28;20025;-74
2021/05/22 02:09:53;;;;;;;12.90;5.18;;;;;;;11.43;80.88;100767.09;5033178;28;20074;-74
2021/05/22 02:12:20;;;;;;;9.63;5.18;;;;;;;11.63;80.64;100783.38;5051092;28;20029;-74
2021/05/22 02:14:48;;;;;;;9.95;5.10;;;;;;;11.74;79.78;100774.31;5050644;28;20539;-74
2021/05/22 02:17:19;;;;;;;9.98;4.68;;;;;;;11.67;80.23;100779.19;5051296;28;20029;-73
2021/05/22 02:19:47;;;;;;;9.02;5.55;;;;;;;11.49;80.43;100739.75;5033099;28;20033;-74
2021/05/22 02:22:19;;;;;;;10.60;4.72;;;;;;;11.76;80.21;100780.44;5050831;28;20033;-74
2021/05/22 02:24:44;;;;;;;9.52;4.80;;;;;;;11.67;79.16;100753.34;5050593;28;20033;-74
2021/05/22 02:27:11;;;;;;;7.03;4.20;;;;;;;11.65;79.17;100776.53;5050955;28;20532;-74
2021/05/22 02:29:39;;;;;;;7.82;4.55;;;;;;;11.48;78.75;100774.19;5032968;28;20025;-74
2021/05/22 02:32:06;;;;;;;10.27;4.93;;;;;;;11.41;79.41;100776.50;5033224;28;20075;-74
2021/05/22 02:34:37;;;;;;;8.80;4.18;;;;;;;11.23;79.62;100787.88;5050883;28;20044;-74
2021/05/22 02:37:04;;;;;;;8.50;4.57;;;;;;;10.51;80.10;100704.09;5032886;28;20491;-74
2021/05/22 02:39:31;;;;;;;7.25;3.97;;;;;;;10.80;79.89;100787.06;5050914;28;20117;-74
2021/05/22 02:42:00;;;;;;;16.27;4.90;;;;;;;9.91;79.77;100665.44;5050986;28;20040;-75
2021/05/22 02:44:27;;;;;;;23.83;4.88;;;;;;;10.26;81.03;100769.25;5050861;28;20513;-74
2021/05/22 02:46:54;;;;;;;10.73;4.72;;;;;;;10.15;82.06;100797.16;5050597;28;20040;-73
2021/05/22 02:49:27;;;;;;;7.53;4.13;;;;;;;9.55;83.27;100751.53;5032777;28;20112;-73
2021/05/22 02:52:00;;;;;;;8.07;4.60;;;;;;;9.68;84.84;100806.22;5050689;28;20052;-74
2021/05/22 02:54:27;;;;;;;9.10;4.10;;;;;;;9.63;86.35;100803.47;5050533;28;20029;-74
2021/05/22 02:56:55;;;;;;;9.07;4.80;;;;;;;9.83;85.83;100809.53;5050627;28;20028;-72
2021/05/22 02:59:21;;;;;;;6.68;4.32;;;;;;;9.89;85.83;100816.63;5032806;28;20098;-71
2021/05/22 03:01:48;;;;;;;7.40;4.07;;;;;;;9.95;86.52;100818.63;5050371;28;20550;-71
2021/05/22 03:04:14;;;;;;;8.82;4.20;;;;;;;9.99;86.51;100812.78;5052692;28;20033;-71
2021/05/22 03:06:39;;;;;;;9.85;4.07;;;;;;;10.13;86.19;100828.88;5054047;28;20025;-71
2021/05/22 03:09:05;;;;;;;6.25;4.05;;;;;;;10.14;86.03;100820.31;5054011;28;20422;-71
2021/05/22 03:11:31;;;;;;;7.65;4.30;;;;;;;10.11;85.77;100821.06;5054137;28;20087;-71
2021/05/22 03:13:57;;;;;;;6.55;4.43;;;;;;;10.36;85.60;100828.22;5054240;28;20068;-71
2021/05/22 03:16:22;;;;;;;9.10;4.60;;;;;;;10.20;85.04;100771.56;5053836;28;20032;-71
2021/05/22 03:18:48;;;;;;;11.07;4.60;;;;;;;10.66;84.46;100826.91;5054032;28;20037;-71
2021/05/22 03:21:13;;;;;;;9.23;5.00;;;;;;;10.62;84.22;100783.72;5053806;28;20482;-71
2021/05/22 03:23:40;;;;;;;9.93;5.10;;;;;;;11.06;83.32;100838.88;5053473;28;20543;-71
2021/05/22 03:26:05;;;;;;;8.32;4.88;;;;;;;10.78;82.16;100769.69;5054096;28;20056;-71
2021/05/22 03:28:31;;;;;;;7.55;4.10;;;;;;;11.38;81.83;100844.47;5036001;28;20568;-72
2021/05/22 03:30:57;;;;;;;6.13;3.22;;;;;;;11.16;81.04;100829.81;5053764;28;20033;-72
2021/05/22 03:33:26;;;;;;;6.55;3.53;;;;;;;11.17;81.61;100845.34;5053744;28;20029;-71
2021/05/22 03:35:51;;;;;;;7.55;4.10;;;;;;;11.22;81.78;100852.44;5053738;28;20029;-72
2021/05/22 03:38:17;;;;;;;6.05;3.50;;;;;;;11.26;81.68;100860.34;5053535;28;20052;-73
2021/05/22 03:40:44;;;;;;;6.38;3.65;;;;;;;11.18;81.42;100835.94;5053670;28;20040;-72
2021/05/22 03:43:10;;;;;;;5.93;3.65;;;;;;;10.81;80.98;100772.41;5053424;28;20033;-71
2021/05/22 03:45:35;;;;;;;6.53;3.42;;;;;;;10.86;80.90;100777.78;5053518;28;20036;-72
2021/05/22 03:48:01;;;;;;;5.28;3.15;;;;;;;10.92;80.96;100790.94;5053273;28;20053;-72
2021/05/22 03:50:26;;;;;;;7.03;2.97;;;;;;;10.58;81.31;100748.22;5053595;28;20037;-72
2021/05/22 03:52:52;;;;;;;9.57;3.40;;;;;;;11.30;81.05;100874.28;5052997;28;20403;-72
2021/05/22 03:55:18;;;;;;;13.30;3.50;;;;;;;11.22;80.91;100862.78;5053074;28;20031;-72
2021/05/22 03:57:43;;;;;;;6.72;3.58;;;;;;;11.13;81.38;100856.41;5053343;28;20021;-74
2021/05/22 04:00:10;;;;;;;7.88;4.20;;;;;;;11.10;82.26;100871.78;5052841;28;20037;-72
2021/05/22 04:02:36;;;;;;;8.98;4.20;;;;;;;10.82;83.51;100838.75;5052698;28;20368;-73
2021/05/22 04:05:02;;;;;;;8.65;3.95;;;;;;;10.84;84.38;100879.34;5052987;28;20035;-73
2021/05/22 04:07:27;;;;;;;6.40;3.90;;;;;;;10.39;84.71;100804.25;5052739;28;20108;-72
2021/05/22 04:09:53;;;;;;;8.15;4.38;;;;;;;10.50;85.51;100861.50;5053007;28;20589;-73
2021/05/22 04:12:18;;;;;;;8.38;4.60;;;;;;;10.52;86.63;100870.19;5035124;28;20022;-73
2021/05/22 04:14:44;;;;;;;10.00;4.30;;;;;;;10.54;87.10;100865.09;5052683;28;20041;-73
2021/05/22 04:17:09;;;;;;;8.63;4.68;;;;;;;10.76;87.07;100885.84;5053284;28;20448;-73
2021/05/22 04:19:35;;;;;;;6.43;4.25;;;;;;;10.90;86.78;100877.81;5034960;28;20047;-73
2021/05/22 04:22:00;;;;;;;7.82;4.60;;;;;;;11.03;86.78;100880.09;5034688;28;20084;-73
2021/05/22 04:24:26;;;;;;;6.93;4.63;;;;;;;11.07;86.90;100866.47;5052792;28;20065;-73
2021/05/22 04:26:51;;;;;;;5.93;4.50;;;;;;;11.25;86.33;100860.31;5052521;28;20025;-73
2021/05/22 04:29:17;;;;;;;5.32;4.32;;;;;;;11.22;86.59;100844.69;5052859;28;20110;-73
2021/05/22 04:31:42;;;;;;;8.27;4.78;;;;;;;11.52;86.54;100867.41;5052464;28;20025;-73
2021/05/22 04:34:08;;;;;;;6.13;4.80;;;;;;;11.56;86.39;100858.94;5052512;28;20029;-73
2021/05/22 04:36:34;;;;;;;6.40;4.95;;;;;;;11.63;86.58;100859.22;5053063;28;20055;-74
2021/05/22 04:38:59;;;;;;;8.63;5.95;;;;;;;11.73;86.97;100849.25;5052826;28;20033;-73
2021/05/22 04:41:25;;;;;;;11.35;7.57;;;;;;;11.88;87.31;100864.50;5034061;28;20384;-72
2021/05/22 04:43:50;;;;;;;10.85;7.05;;;;;;;11.87;87.26;100854.97;5050375;28;20024;-73
2021/05/22 04:46:16;;;;;;;9.75;7.13;;;;;;;11.79;88.07;100860.72;5048581;28;20036;-72
2021/05/22 04:48:42;;;;;;;11.00;8.00;;;;;;;11.94;89.22;100859.53;5049928;28;20036;-72
2021/05/22 04:51:09;;;;;;;10.93;7.53;;;;;;;12.01;88.41;100861.53;5069700;28;20039;-72
2021/05/22 04:53:35;;;;;;;8.65;6.60;;;;;;;12.11;89.04;100866.25;5052026;28;20090;-71
2021/05/22 04:56:01;;;;;;;10.15;7.15;;;;;;;12.13;89.95;100867.19;5049940;28;20025;-72
2021/05/22 04:58:26;;;;;;;13.05;6.82;;;;;;;12.19;90.86;100855.31;5038427;28;20043;-71
2021/05/22 05:00:52;;;;;;;10.70;7.13;;;;;;;12.22;91.80;100869.22;5051801;28;20483;-70
2021/05/22 05:03:17;;;;;;;9.00;6.55;;;;;;;12.29;92.50;100870.34;5051380;28;20021;-73
2021/05/22 05:05:45;;;;;;;9.25;6.95;;;;;;;12.42;93.02;100872.56;5051626;28;20124;-73
2021/05/22 05:08:10;;;;;;;8.52;7.57;;;;;;;12.36;93.23;100864.56;5064338;28;20482;-73
2021/05/22 05:10:36;;;;;;;12.32;7.35;;;;;;;12.49;93.53;100880.53;5051506;28;20103;-71
2021/05/22 05:13:01;;;;;;;10.65;7.25;;;;;;;12.59;93.71;100882.63;5050879;28;20036;-74
2021/05/22 05:15:27;;;;;;;9.45;7.35;;;;;;;12.79;94.18;100897.13;5051677;28;20024;-75
2021/05/22 05:17:53;;;;;;;6.30;5.70;;;;;;;12.80;92.35;100898.03;5060966;28;20032;-75
2021/05/22 05:20:18;;;;;;;8.88;6.15;;;;;;;12.79;92.59;100878.13;5051369;28;20029;-74
2021/05/22 05:22:44;;;;;;;7.22;5.80;;;;;;;12.93;90.83;100887.28;5050954;28;20021;-72
2021/05/22 05:25:10;;;;;;;7.70;5.97;;;;;;;12.98;89.83;100871.84;5033395;28;20028;-75
2021/05/22 05:27:36;;;;;;;8.43;6.65;;;;;;;13.15;89.30;100887.97;5051013;28;20471;-75
2021/05/22 05:30:03;;;;;;;9.77;7.90;;;;;;;13.33;87.62;100885.09;5050253;28;20082;-72
2021/05/22 05:32:28;;;;;;;10.90;7.10;;;;;;;13.32;87.41;100864.31;5048472;28;20021;-73
2021/05/22 05:34:54;;;;;;;9.93;7.82;;;;;;;13.54;87.96;100890.13;5048511;28;20028;-76
2021/05/22 05:37:19;;;;;;;8.77;7.20;;;;;;;13.63;87.19;100886.94;5051445;28;20029;-73
2021/05/22 05:39:45;;;;;;;8.27;7.38;;;;;;;13.65;88.02;100884.41;5051404;28;20029;-74
2021/05/22 05:42:10;;;;;;;9.07;6.63;;;;;;;13.80;87.34;100889.19;5050763;28;20422;-73
2021/05/22 05:44:36;;;;;;;9.30;6.88;;;;;;;13.79;87.57;100887.44;5050662;28;20044;-75
2021/05/22 05:47:01;;;;;;;10.27;7.50;;;;;;;13.88;87.58;100888.59;5051180;28;20514;-73
2021/05/22 05:49:30;;;;;;;8.55;7.47;;;;;;;13.97;87.75;100887.09;5066127;28;20111;-75
2021/05/22 05:51:59;;;;;;;8.68;7.40;;;;;;;14.08;86.69;100883.97;5063653;28;20025;-75
2021/05/22 05:54:26;;;;;;;10.18;7.50;;;;;;;14.24;87.86;100897.41;5066308;28;20556;-72
2021/05/22 05:56:51;;;;;;;9.50;7.57;;;;;;;14.32;86.83;100888.13;5051076;28;20025;-75
2021/05/22 05:59:17;;;;;;;8.73;6.93;;;;;;;14.55;85.95;100899.16;5066581;28;20025;-74
2021/05/22 06:01:43;;;;;;;9.55;7.32;;;;;;;14.61;85.88;100913.16;5066610;28;20106;-72
2021/05/22 06:04:09;;;;;;;11.10;7.72;;;;;;;14.73;85.36;100908.34;5050376;28;20025;-73
2021/05/22 06:06:34;;;;;;;10.48;7.65;;;;;;;14.74;85.71;100899.66;5050891;28;20455;-72
2021/05/22 06:09:02;;;;;;;9.10;8.07;;;;;;;14.76;85.33;100903.19;5065803;28;20017;-71
2021/05/22 06:11:30;;;;;;;9.00;8.07;;;;;;;14.90;85.69;100921.75;5050917;28;20117;-74
2021/05/22 06:13:56;;;;;;;10.15;8.10;;;;;;;15.07;84.93;100916.13;5050246;28;20100;-73
2021/05/22 06:16:34;;;;;;;8.13;7.10;;;;;;;15.18;81.93;100918.16;5050135;28;20040;-74
2021/05/22 06:19:00;;;;;;;10.45;7.72;;;;;;;15.24;82.84;100914.84;5048261;28;20509;-71
2021/05/22 06:21:25;;;;;;;8.90;7.00;;;;;;;15.31;77.09;100921.06;5050729;28;20017;-73
2021/05/22 06:23:51;;;;;;;9.70;7.75;;;;;;;15.23;77.91;100918.28;5066147;28;20055;-71
2021/05/22 06:26:18;;;;;;;10.43;7.47;;;;;;;15.36;77.33;100919.47;5047804;28;20079;-73
2021/05/22 06:28:44;;;;;;;9.05;7.35;;;;;;;15.28;75.99;100913.19;5050670;28;20029;-72
2021/05/22 06:31:10;;;;;;;9.10;8.13;;;;;;;14.92;78.79;100860.28;5050346;28;20040;-72
2021/05/22 06:33:36;;;;;;;8.32;6.60;;;;;;;15.44;75.75;100923.13;5050297;28;20071;-72
2021/05/22 06:36:03;;;;;;;9.07;6.93;;;;;;;15.51;75.43;100925.06;5050576;28;20060;-74
2021/05/22 06:38:29;;;;;;;7.50;6.03;;;;;;;15.23;75.18;100883.56;5051870;28;20025;-72
2021/05/22 06:40:55;;;;;;;6.97;5.85;;;;;;;15.44;74.81;100919.63;5054115;28;20025;-72
2021/05/22 06:43:21;;;;;;;10.32;6.03;;;;;;;15.52;74.80;100934.59;5070090;28;20028;-72
2021/05/22 06:46:01;;;;;;;12.73;7.28;;;;;;;15.50;75.93;100927.59;5054619;28;20398;-74
2021/05/22 06:48:27;;;;;;;7.68;6.90;;;;;;;15.52;76.71;100908.56;5052553;28;20037;-72
2021/05/22 06:50:54;;;;;;;10.35;7.32;;;;;;;15.69;76.11;100923.72;5054086;28;20035;-75
2021/05/22 06:53:19;;;;;;;9.02;6.07;;;;;;;15.65;75.60;100916.66;5069400;28;20415;-72
2021/05/22 06:55:45;;;;;;;7.93;6.80;;;;;;;15.76;75.72;100919.53;5054398;28;20025;-72
2021/05/22 06:58:10;;;;;;;9.18;6.72;;;;;;;15.89;73.88;100925.91;5036044;28;20033;-74
2021/05/22 07:00:37;;;;;;;10.70;9.40;;;;;;;15.64;74.73;100868.94;5053886;28;20024;-72
2021/05/22 07:03:02;;;;;;;11.82;9.27;;;;;;;16.22;72.24;100925.78;5054163;28;20029;-72
2021/05/22 07:05:28;;;;;;;7.90;6.80;;;;;;;16.37;73.35;100914.78;5054243;28;20036;-73
2021/05/22 07:07:55;;;;;;;10.07;8.23;;;;;;;16.47;72.71;100913.25;5053958;28;20094;-73
2021/05/22 07:10:21;;;;;;;9.10;7.07;;;;;;;16.27;70.77;100905.03;5069371;28;20407;-73
2021/05/22 07:12:47;;;;;;;7.82;6.07;;;;;;;16.52;70.42;100908.13;5051158;28;20033;-75
2021/05/22 07:15:13;;;;;;;8.45;6.18;;;;;;;16.62;70.47;100915.28;5031097;28;20500;-73
2021/05/22 07:17:39;;;;;;;11.88;7.70;;;;;;;16.67;72.29;100926.66;5031410;28;20041;-74
2021/05/22 07:20:06;;;;;;;9.57;6.50;;;;;;;16.59;72.55;100897.84;5035833;28;20120;-75
2021/05/22 07:22:32;;;;;;;11.95;7.70;;;;;;;16.75;70.48;100898.16;5031021;28;20443;-72
2021/05/22 07:24:58;;;;;;;9.23;6.65;;;;;;;17.07;69.70;100903.09;5031223;28;20033;-73
2021/05/22 07:27:23;;;;;;;9.55;6.90;;;;;;;16.95;69.19;100862.03;5031543;28;20044;-74
2021/05/22 07:29:51;;;;;;;8.73;6.25;;;;;;;17.33;68.12;100907.88;5031594;28;20530;-74
2021/05/22 07:32:16;;;;;;;6.68;4.80;;;;;;;17.48;65.73;100912.44;5031928;28;20043;-74
2021/05/22 07:34:42;;;;;;;6.57;5.13;;;;;;;17.46;63.67;100912.44;5031387;28;20029;-73
2021/05/22 07:37:07;;;;;;;8.63;5.55;;;;;;;17.54;66.80;100915.16;5031661;28;20033;-77
2021/05/22 07:39:33;;;;;;;7.85;4.63;;;;;;;17.69;63.90;100909.28;5031451;28;20052;-73
2021/05/22 07:41:59;;;;;;;6.95;4.47;;;;;;;17.80;63.00;100902.47;5030981;28;20195;-72
2021/05/22 07:44:24;;;;;;;8.27;4.80;;;;;;;17.84;64.42;100896.44;5047861;28;20041;-73
2021/05/22 07:46:50;;;;;;;8.93;5.20;;;;;;;17.79;65.08;100890.28;5031546;28;20064;-73
2021/05/22 07:49:16;;;;;;;6.55;4.78;;;;;;;17.91;63.99;100882.63;5030751;28;20029;-73
2021/05/22 07:51:42;;;;;;;6.68;5.03;;;;;;;17.67;64.38;100825.72;5017372;28;20069;-73
2021/05/22 07:54:09;;;;;;;7.05;4.32;;;;;;;17.92;64.64;100862.63;5053415;28;20032;-72
2021/05/22 07:56:35;;;;;;;6.93;4.18;;;;;;;18.00;64.32;100863.59;5035593;28;20419;-74
2021/05/22 07:59:01;;;;;;;5.07;4.10;;;;;;;18.23;64.02;100876.06;5053149;28;20388;-74
2021/05/22 08:01:27;;;;;;;6.28;4.30;;;;;;;18.34;62.77;100877.06;5053277;28;20029;-74
2021/05/22 08:03:52;;;;;;;6.75;4.00;;;;;;;18.23;63.14;100866.50;5052989;28;20029;-73
2021/05/22 08:06:18;;;;;;;8.73;4.18;;;;;;;18.42;63.53;100877.19;5010922;28;20075;-72
2021/05/22 08:08:47;;;;;;;5.78;3.90;;;;;;;18.40;62.54;100873.66;4994731;28;20026;-73
2021/05/22 08:11:12;;;;;;;4.80;3.72;;;;;;;18.48;62.36;100864.16;5027135;28;20042;-73
2021/05/22 08:13:38;;;;;;;7.85;4.00;;;;;;;18.14;63.40;100806.28;5011293;28;20385;-74
2021/05/22 08:16:04;;;;;;;8.30;4.00;;;;;;;18.71;61.94;100873.97;5010836;28;20038;-73
2021/05/22 08:18:29;;;;;;;6.95;4.07;;;;;;;18.84;60.51;100870.63;5010809;28;20112;-74
2021/05/22 08:20:56;;;;;;;5.80;4.35;;;;;;;18.86;62.19;100871.50;5011136;28;20042;-72
2021/05/22 08:23:22;;;;;;;7.15;4.00;;;;;;;18.84;62.65;100867.13;5010870;28;20030;-74
2021/05/22 08:25:47;;;;;;;5.05;3.95;;;;;;;18.96;62.91;100866.41;5010692;28;20042;-73
2021/05/22 08:28:20;;;;;;;5.03;4.18;;;;;;;18.75;63.17;100818.22;5027090;28;20026;-73
2021/05/22 08:30:47;;;;;;;5.93;3.83;;;;;;;19.16;60.10;100862.19;5010857;28;20153;-72
2021/05/22 08:33:13;;;;;;;5.40;4.30;;;;;;;19.20;58.78;100856.13;5010833;28;20026;-76
2021/05/22 08:35:38;;;;;;;4.40;3.20;;;;;;;19.29;59.45;100864.91;5010560;28;20041;-73
2021/05/22 08:38:04;;;;;;;5.22;3.50;;;;;;;19.37;57.96;100863.22;5045230;28;20052;-73
2021/05/22 08:40:29;;;;;;;5.45;3.50;;;;;;;19.42;58.17;100866.75;5052843;28;20376;-73
2021/05/22 08:42:55;;;;;;;8.40;3.40;;;;;;;19.59;56.83;100868.59;5052642;28;20528;-73
2021/05/22 08:45:23;;;;;;;4.63;3.10;;;;;;;19.40;55.12;100816.13;5052615;28;20390;-73
2021/05/22 08:47:50;;;;;;;4.32;3.10;;;;;;;19.79;57.58;100858.22;5052187;28;20450;-73
2021/05/22 08:50:17;;;;;;;4.07;3.38;;;;;;;19.92;57.13;100857.47;5052232;28;20390;-73
2021/05/22 08:52:42;;;;;;;4.78;3.55;;;;;;;19.99;56.19;100867.09;5052031;28;20442;-73
2021/05/22 08:55:09;;;;;;;5.10;2.90;;;;;;;20.17;53.46;100862.81;5034717;28;20094;-77
2021/05/22 08:57:35;;;;;;;5.07;2.50;;;;;;;20.33;52.77;100851.50;5051958;28;20584;-73
2021/05/22 09:00:00;;;;;;;3.95;2.70;;;;;;;20.46;52.83;100860.28;5051802;28;20103;-73
2021/05/22 09:02:27;;;;;;;4.15;2.65;;;;;;;20.64;52.66;100856.81;5051266;28;20045;-72
2021/05/22 09:05:15;;;;;;;4.35;3.00;;;;;;;20.81;52.13;100856.88;5051890;28;20107;-73
2021/05/22 09:07:44;;;;;;;3.90;2.60;;;;;;;20.94;50.39;100856.88;5052071;28;20467;-73
2021/05/22 09:10:18;;;;;;;4.00;2.40;;;;;;;20.85;49.92;100835.00;5052025;28;20123;-72
2021/05/22 09:12:47;;;;;;;4.32;2.42;;;;;;;20.88;49.75;100847.25;5051786;28;20037;-72
2021/05/22 09:15:22;;;;;;;2.75;2.20;;;;;;;20.64;50.48;100803.47;5051665;28;20029;-73
2021/05/22 09:17:58;;;;;;;3.80;2.67;;;;;;;20.76;50.76;100847.22;5048646;28;20041;-72
2021/05/22 09:20:27;;;;;;;4.60;2.50;;;;;;;20.95;53.16;100846.38;5051689;28;20021;-72
2021/05/22 09:23:13;;;;;;;4.40;2.80;;;;;;;21.15;51.76;100827.13;5034132;28;20557;-72
2021/05/22 09:25:41;;;;;;;5.90;2.88;;;;;;;21.37;52.80;100827.09;5067065;28;20033;-73
2021/05/22 09:28:08;;;;;;;4.13;2.83;;;;;;;21.06;51.23;100778.13;5066893;28;20040;-72
2021/05/22 09:30:35;;;;;;;3.75;2.97;;;;;;;21.32;50.27;100840.22;5049988;28;20065;-73
2021/05/22 09:33:01;;;;;;;8.45;2.75;;;;;;;21.20;51.00;100816.59;5037819;28;20119;-72
2021/05/22 09:35:27;;;;;;;4.15;2.50;;;;;;;21.25;50.25;100786.84;5052653;28;20549;-74
2021/05/22 09:37:56;;;;;;;4.82;2.55;;;;;;;21.23;50.67;100798.22;5049093;28;20045;-75
2021/05/22 09:40:26;;;;;;;3.90;2.40;;;;;;;21.52;49.94;100827.06;5040037;28;20072;-72
2021/05/22 09:42:52;;;;;;;3.33;2.33;;;;;;;21.60;48.94;100817.41;5048924;28;20037;-73
2021/05/22 09:45:27;;;;;;;4.45;2.05;;;;;;;21.85;48.57;100819.09;5032264;28;20029;-72
2021/05/22 09:47:53;;;;;;;2.10;1.90;;;;;;;21.75;45.80;100821.75;5032000;28;20049;-71
2021/05/22 09:50:44;;;;;;;3.85;1.95;;;;;;;21.82;47.36;100814.75;5048108;28;20538;-76
2021/05/22 09:53:26;;;;;;;5.40;2.13;;;;;;;21.95;46.33;100811.16;5028827;28;20038;-74
2021/05/22 09:56:15;;;;;;;3.58;1.88;;;;;;;21.48;47.60;100763.16;5035567;28;20511;-72
2021/05/22 09:58:49;;;;;;;2.65;1.85;;;;;;;21.89;49.17;100811.19;5037801;28;20055;-71
2021/05/22 10:01:30;;;;;;;3.20;2.20;;;;;;;21.67;49.58;100762.22;5040448;28;20033;-75
2021/05/22 10:04:18;;;;;;;5.25;2.00;;;;;;;22.23;48.47;100797.88;5042177;28;20040;-78
2021/05/22 10:06:43;;;;;;;2.65;1.70;;;;;;;22.39;45.72;100792.53;5022330;28;20057;-71
2021/05/22 10:09:14;;;;;;;3.47;1.70;;;;;;;22.35;45.63;100793.41;5038744;28;20118;-75
2021/05/22 10:12:01;;;;;;;3.10;1.80;;;;;;;22.40;47.73;100800.41;5031439;28;20021;-75
2021/05/22 10:14:31;;;;;;;4.65;1.92;;;;;;;22.55;46.14;100773.13;5034589;28;20051;-74
2021/05/22 10:16:57;;;;;;;3.25;2.13;;;;;;;22.83;46.77;100782.53;5036747;28;20389;-75
2021/05/22 10:19:25;;;;;;;4.28;2.03;;;;;;;22.81;49.61;100785.19;5039777;28;20399;-75
2021/05/22 10:21:51;;;;;;;4.78;2.00;;;;;;;22.99;46.42;100773.63;5042992;28;20628;-74
2021/05/22 10:24:16;;;;;;;3.85;2.00;;;;;;;23.31;46.58;100779.50;5032839;28;20120;-74
2021/05/22 10:26:42;;;;;;;3.10;1.88;;;;;;;23.52;44.65;100758.16;5033879;28;20030;-73
2021/05/22 10:29:08;;;;;;;3.55;1.70;;;;;;;23.55;44.62;100755.50;5037819;28;21486;-70
2021/05/22 10:31:41;;;;;;;3.20;1.80;;;;;;;23.62;43.77;100739.59;5033933;28;20036;-71
2021/05/22 10:34:27;;;;;;;2.25;1.60;;;;;;;23.37;46.19;100698.63;5033455;28;20060;-74
2021/05/22 10:36:58;;;;;;;5.30;1.50;;;;;;;23.24;45.63;100744.41;5033120;28;20033;-73
2021/05/22 10:39:41;;;;;;;3.53;1.90;;;;;;;23.28;45.38;100746.16;5024345;28;20029;-73
2021/05/22 10:42:22;;;;;;;3.75;1.60;;;;;;;23.10;46.59;100740.16;5035745;28;20195;-73
2021/05/22 10:44:48;;;;;;;3.88;1.73;;;;;;;23.41;45.96;100734.59;5033416;28;20064;-73
2021/05/22 10:47:17;;;;;;;2.17;1.42;;;;;;;23.54;44.75;100727.41;5035684;28;20103;-72
2021/05/22 10:50:01;;;;;;;1.42;1.30;;;;;;;23.53;44.38;100730.91;5037578;28;20029;-74
2021/05/22 10:52:29;;;;;;;3.00;1.50;;;;;;;23.33;44.30;100669.69;5035918;28;20516;-73
2021/05/22 10:55:13;;;;;;;3.22;1.50;;;;;;;23.88;44.26;100733.97;5034979;28;20053;-72
2021/05/22 10:57:42;;;;;;;1.48;1.38;;;;;;;23.51;43.36;100684.41;4992642;28;20034;-73
2021/05/22 11:00:13;;;;;;;2.10;1.23;;;;;;;23.99;42.47;100742.63;4993113;28;20496;-73
2021/05/22 11:02:44;;;;;;;1.40;1.30;;;;;;;23.51;40.91;100743.22;4991293;28;20274;-75
2021/05/22 11:05:28;;;;;;;4.22;1.20;;;;;;;23.37;41.89;100727.59;4997153;28;20117;-72
2021/05/22 11:08:08;;;;;;;2.38;1.45;;;;;;;23.33;43.92;100717.09;5005300;28;20038;-70
2021/05/22 11:10:39;;;;;;;2.88;1.40;;;;;;;23.32;43.24;100710.97;4996649;28;20049;-74
2021/05/22 11:13:26;;;;;;;1.88;1.20;;;;;;;23.36;43.36;100711.81;5005810;28;20048;-74
2021/05/22 11:15:55;;;;;;;2.17;1.55;;;;;;;23.02;44.85;100670.03;4981446;28;20043;-71
2021/05/22 11:18:32;;;;;;;2.30;1.30;;;;;;;23.14;44.24;100709.41;4970986;28;20516;-72
2021/05/22 11:21:21;;;;;;;4.55;1.80;;;;;;;23.33;44.32;100704.81;4970346;28;20145;-74
2021/05/22 11:24:01;;;;;;;2.85;1.42;;;;;;;23.37;44.81;100695.97;4982933;28;20049;-73
2021/05/22 11:26:48;;;;;;;4.85;1.52;;;;;;;23.63;42.00;100701.78;4971851;28;20042;-72
2021/05/22 11:29:14;;;;;;;2.20;1.30;;;;;;;23.87;41.91;100687.41;4983307;28;20035;-71